Terminal Aerodrome Forecast
Issued by NWS North Platte, NE

Home | Current Version | Previous Version | Text Only | Print | Product List | Glossary On
Versions: 1 2 3 4 5 6 7 8 9 10 11 12 13
000
FTUS43 KLBF 241100
TAFVTN
TAF
KVTN 241122Z 2412/2512 29006KT P6SM SCT250
     FM241600 28020G28KT P6SM BKN050 OVC100
     FM241900 30020G32KT P6SM VCSH BKN035
     FM250200 31017G26KT P6SM BKN050
     FM250700 31016G25KT P6SM SKC=

USA.gov is the U.S. government's official web portal to all federal, state and local government web resources and services.